Time;durP1;ratioP1;P1;durP2;ratioP2;P2;SDS_P1;SDS_P2;PMS_P1;PMS_P2;Temp;Humidity;BMP_temperature;BMP_pressure;BME280_temperature;BME280_humidity;BME280_pressure;Samples;Min_cycle;Max_cycle;Signal;HPM_P1;HPM_P2
2022/06/16 00:00:20;;;;;;;10.25;5.30;;;13.00;99.90;;;;;;5009430;28;20565;-93
2022/06/16 00:02:49;;;;;;;9.73;4.68;;;13.00;99.90;;;;;;5009684;28;20137;-93
2022/06/16 00:05:18;;;;;;;11.30;5.13;;;13.00;99.90;;;;;;5008703;28;20076;-93
2022/06/16 00:07:44;;;;;;;14.30;5.47;;;12.90;99.90;;;;;;5010065;28;20045;-93
2022/06/16 00:10:11;;;;;;;9.48;5.30;;;12.90;99.90;;;;;;5008980;28;20414;-93
2022/06/16 00:12:38;;;;;;;10.95;4.53;;;12.90;99.90;;;;;;4977846;28;20055;-93
2022/06/16 00:15:06;;;;;;;13.32;5.68;;;12.80;99.90;;;;;;5008943;28;20038;-93
2022/06/16 00:17:31;;;;;;;10.23;5.40;;;12.80;99.90;;;;;;4993017;28;20077;-93
2022/06/16 00:19:57;;;;;;;8.52;4.57;;;12.90;99.90;;;;;;4991874;28;20136;-93
2022/06/16 00:22:23;;;;;;;9.68;5.13;;;12.90;99.90;;;;;;5009074;28;20046;-93
2022/06/16 00:24:49;;;;;;;7.50;4.63;;;12.90;99.90;;;;;;5008803;28;20050;-93
2022/06/16 00:27:15;;;;;;;8.63;4.82;;;12.90;99.90;;;;;;4994240;28;20042;-92
2022/06/16 00:29:41;;;;;;;8.68;4.45;;;12.60;99.90;;;;;;5011573;28;20041;-93
2022/06/16 00:32:07;;;;;;;9.05;5.25;;;12.80;99.90;;;;;;5010256;28;20548;-93
2022/06/16 00:34:33;;;;;;;7.70;4.78;;;12.80;99.90;;;;;;4992699;28;20077;-93
2022/06/16 00:36:59;;;;;;;9.20;4.68;;;12.80;99.90;;;;;;5009404;28;20081;-93
2022/06/16 00:39:24;;;;;;;10.20;4.78;;;12.90;99.90;;;;;;5011969;28;20041;-93
2022/06/16 00:41:50;;;;;;;10.85;4.90;;;12.90;99.90;;;;;;5012928;28;20119;-92
2022/06/16 00:44:39;;;;;;;8.90;4.65;;;13.00;99.90;;;;;;5011684;28;20054;-93
2022/06/16 00:47:05;;;;;;;10.40;4.82;;;13.00;99.90;;;;;;5012601;28;20041;-93
2022/06/16 00:49:31;;;;;;;9.88;4.50;;;12.90;99.90;;;;;;5011955;28;20515;-93
2022/06/16 00:52:02;;;;;;;10.82;4.80;;;13.10;99.90;;;;;;5011897;28;20060;-94
2022/06/16 00:54:34;;;;;;;7.85;4.68;;;12.90;99.90;;;;;;5013014;28;20049;-93
2022/06/16 00:57:07;;;;;;;10.18;4.60;;;12.80;99.90;;;;;;5012395;28;20506;-93
2022/06/16 00:59:36;;;;;;;10.30;4.88;;;12.80;99.90;;;;;;5011761;28;20140;-93
2022/06/16 01:02:04;;;;;;;10.25;5.35;;;12.80;99.90;;;;;;5013165;28;20041;-93
2022/06/16 01:07:17;;;;;;;8.60;4.63;;;12.80;99.90;;;;;;5027724;28;20524;-93
2022/06/16 01:09:44;;;;;;;10.52;5.15;;;12.90;99.90;;;;;;5016066;28;20046;-93
2022/06/16 01:15:32;;;;;;;12.30;4.97;;;12.70;99.90;;;;;;5016649;28;20054;-92
2022/06/16 01:18:08;;;;;;;10.07;5.18;;;12.70;99.90;;;;;;5013092;28;20046;-93
2022/06/16 01:20:44;;;;;;;10.10;4.88;;;12.50;99.90;;;;;;5011942;28;20046;-93
2022/06/16 01:23:31;;;;;;;8.73;4.78;;;12.50;99.90;;;;;;5012953;28;20049;-93
2022/06/16 01:26:07;;;;;;;9.73;4.93;;;12.50;99.90;;;;;;4993162;28;21007;-93
2022/06/16 01:29:17;;;;;;;9.32;4.85;;;12.50;99.90;;;;;;4960743;28;20402;-92
2022/06/16 01:32:11;;;;;;;9.57;4.68;;;12.40;99.90;;;;;;4975820;28;20034;-93
2022/06/16 01:34:48;;;;;;;10.10;4.57;;;12.50;99.90;;;;;;4975374;28;20117;-93
2022/06/16 01:37:21;;;;;;;7.97;4.70;;;12.50;99.90;;;;;;4977099;28;20398;-93
2022/06/16 01:40:00;;;;;;;11.25;4.63;;;12.40;99.90;;;;;;4977108;28;20406;-93
2022/06/16 01:42:31;;;;;;;11.45;4.70;;;12.40;99.90;;;;;;4959246;28;20053;-93
2022/06/16 01:45:08;;;;;;;9.13;5.10;;;12.30;99.90;;;;;;4976475;28;20049;-93
2022/06/16 01:47:35;;;;;;;12.10;4.90;;;12.30;99.90;;;;;;4976226;28;20501;-92
2022/06/16 01:50:09;;;;;;;10.20;5.22;;;12.30;99.90;;;;;;4975369;28;20042;-94
2022/06/16 01:52:41;;;;;;;6.90;4.35;;;12.30;99.90;;;;;;4976015;28;20513;-93
2022/06/16 01:55:12;;;;;;;9.48;4.88;;;12.30;99.90;;;;;;4975409;28;20046;-93
2022/06/16 01:57:44;;;;;;;12.75;5.22;;;12.30;99.90;;;;;;4975554;28;20052;-93
2022/06/16 02:00:13;;;;;;;9.40;4.80;;;12.30;99.90;;;;;;4975946;28;20545;-93
2022/06/16 02:02:41;;;;;;;9.27;5.05;;;12.30;99.90;;;;;;4975200;28;20050;-93
2022/06/16 02:05:17;;;;;;;8.57;4.75;;;12.30;99.90;;;;;;4975090;28;20454;-93
2022/06/16 02:07:51;;;;;;;11.18;5.18;;;12.30;99.90;;;;;;4960417;28;20133;-93
2022/06/16 02:10:23;;;;;;;10.75;5.25;;;12.30;99.90;;;;;;4958814;28;20050;-93
2022/06/16 02:12:58;;;;;;;11.77;5.00;;;12.30;99.90;;;;;;4960436;28;20062;-93
2022/06/16 02:15:31;;;;;;;10.00;4.82;;;12.40;99.90;;;;;;4958973;28;20047;-93
2022/06/16 02:17:58;;;;;;;10.10;5.18;;;12.40;99.90;;;;;;4959673;28;20109;-93
2022/06/16 02:20:29;;;;;;;7.82;4.72;;;12.40;99.90;;;;;;4959014;28;20042;-93
2022/06/16 02:22:57;;;;;;;14.70;5.57;;;12.50;99.90;;;;;;4959191;28;20053;-93
2022/06/16 02:25:23;;;;;;;9.63;4.75;;;12.50;99.90;;;;;;4971361;28;20565;-93
2022/06/16 02:27:49;;;;;;;10.18;5.25;;;12.50;99.90;;;;;;4975471;28;20043;-93
2022/06/16 02:30:15;;;;;;;7.13;4.70;;;12.50;99.90;;;;;;4974069;28;20039;-92
2022/06/16 02:33:05;;;;;;;8.77;4.70;;;12.50;99.90;;;;;;4975330;28;20043;-94
2022/06/16 02:35:36;;;;;;;13.50;4.82;;;12.50;99.90;;;;;;4974894;28;20054;-93
2022/06/16 02:38:30;;;;;;;10.70;5.78;;;12.50;99.90;;;;;;4974903;28;20053;-93
2022/06/16 02:41:05;;;;;;;10.00;5.10;;;12.40;99.90;;;;;;4974870;28;20065;-93
2022/06/16 02:43:51;;;;;;;8.95;5.32;;;12.40;99.90;;;;;;4974797;28;20072;-93
2022/06/16 02:46:23;;;;;;;8.77;4.38;;;12.30;99.90;;;;;;4974516;28;20428;-93
2022/06/16 02:48:52;;;;;;;12.68;5.38;;;12.30;99.90;;;;;;4960824;28;20042;-93
2022/06/16 02:51:42;;;;;;;7.93;4.45;;;12.20;99.90;;;;;;4957154;28;20054;-92
2022/06/16 02:54:20;;;;;;;8.30;4.53;;;12.10;99.90;;;;;;4958395;28;20049;-93
2022/06/16 02:56:50;;;;;;;12.55;4.97;;;12.00;99.90;;;;;;4974789;28;20097;-93
2022/06/16 02:59:21;;;;;;;10.05;4.30;;;11.80;99.90;;;;;;4975208;28;20443;-93
2022/06/16 03:01:48;;;;;;;10.63;5.13;;;11.80;99.90;;;;;;4975048;28;20120;-93
2022/06/16 03:04:17;;;;;;;9.38;5.45;;;11.70;99.90;;;;;;4974559;28;20109;-92
2022/06/16 03:06:44;;;;;;;11.63;5.25;;;11.60;99.90;;;;;;4975870;28;20053;-93
2022/06/16 03:09:10;;;;;;;10.13;4.63;;;11.60;99.90;;;;;;4981247;28;20531;-93
2022/06/16 03:11:37;;;;;;;15.38;5.90;;;11.60;99.90;;;;;;4981299;28;20046;-94
2022/06/16 03:14:03;;;;;;;10.07;5.20;;;11.60;99.90;;;;;;4982055;28;20417;-94
2022/06/16 03:16:30;;;;;;;10.73;4.90;;;11.60;99.90;;;;;;4982902;28;20047;-94
2022/06/16 03:18:56;;;;;;;10.82;6.07;;;11.60;99.90;;;;;;4981867;28;20492;-93
2022/06/16 03:21:22;;;;;;;12.45;6.10;;;11.70;99.90;;;;;;4980037;28;20051;-94
2022/06/16 03:23:48;;;;;;;13.88;5.80;;;11.70;99.90;;;;;;4987323;28;20149;-94
2022/06/16 03:26:14;;;;;;;10.05;5.63;;;11.70;99.90;;;;;;5002667;28;20048;-94
2022/06/16 03:28:40;;;;;;;8.82;5.68;;;11.80;99.90;;;;;;5016163;28;20465;-93
2022/06/16 03:31:06;;;;;;;9.38;6.00;;;11.80;99.90;;;;;;4985165;28;20042;-93
2022/06/16 03:33:32;;;;;;;8.02;4.82;;;11.80;99.90;;;;;;4980797;28;20816;-93
2022/06/16 03:35:58;;;;;;;10.68;5.95;;;11.80;99.90;;;;;;4979159;28;20132;-93
2022/06/16 03:40:56;;;;;;;11.70;6.53;;;11.80;99.90;;;;;;4993521;28;20073;-92
2022/06/16 03:43:21;;;;;;;9.82;5.75;;;11.80;99.90;;;;;;4976839;28;20506;-93
2022/06/16 03:45:47;;;;;;;12.57;6.22;;;11.90;99.90;;;;;;4977777;28;20502;-93
2022/06/16 03:48:13;;;;;;;11.50;5.75;;;11.90;99.90;;;;;;4978160;28;20057;-94
2022/06/16 03:50:40;;;;;;;10.65;6.00;;;11.90;99.90;;;;;;4982315;28;20045;-93
2022/06/16 03:53:06;;;;;;;12.18;5.03;;;12.00;99.90;;;;;;4976902;28;20081;-93
2022/06/16 03:55:32;;;;;;;9.75;5.53;;;11.80;99.90;;;;;;4976291;28;20256;-93
2022/06/16 03:57:58;;;;;;;8.32;5.43;;;12.00;99.90;;;;;;4977108;28;20485;-92
2022/06/16 04:00:24;;;;;;;10.80;6.00;;;12.00;99.90;;;;;;4976963;28;20061;-93
2022/06/16 04:05:36;;;;;;;10.48;5.32;;;12.10;99.90;;;;;;4993530;28;20548;-93
2022/06/16 04:08:02;;;;;;;7.53;4.95;;;12.20;99.90;;;;;;4992797;28;20053;-93
2022/06/16 04:10:28;;;;;;;10.35;6.18;;;12.20;99.90;;;;;;4993040;28;20042;-93
2022/06/16 04:12:54;;;;;;;12.38;5.60;;;12.30;99.90;;;;;;4976844;28;20053;-94
2022/06/16 04:15:19;;;;;;;11.63;6.07;;;12.30;99.90;;;;;;4985845;28;20608;-95
2022/06/16 04:17:45;;;;;;;9.63;5.45;;;12.40;99.90;;;;;;4995502;28;20180;-93
2022/06/16 04:20:12;;;;;;;13.13;5.28;;;12.40;99.90;;;;;;4997601;28;20045;-94
2022/06/16 04:22:38;;;;;;;9.02;4.82;;;12.40;99.90;;;;;;4995272;28;20104;-93
2022/06/16 04:25:05;;;;;;;12.18;5.20;;;12.50;99.90;;;;;;4995568;28;20058;-93
2022/06/16 04:27:31;;;;;;;10.02;5.22;;;12.50;99.90;;;;;;4996429;28;20406;-93
2022/06/16 04:29:57;;;;;;;12.40;5.25;;;12.60;99.90;;;;;;4995937;28;20052;-93
2022/06/16 04:32:22;;;;;;;6.45;4.45;;;12.60;99.90;;;;;;4996520;28;20132;-93
2022/06/16 04:34:48;;;;;;;8.63;5.13;;;12.60;99.90;;;;;;5028839;28;20049;-93
2022/06/16 04:37:14;;;;;;;6.57;4.75;;;12.70;99.90;;;;;;4997062;28;20042;-93
2022/06/16 04:39:40;;;;;;;7.93;4.93;;;12.70;99.90;;;;;;4977560;28;20046;-93
2022/06/16 04:42:06;;;;;;;10.38;5.05;;;12.80;99.90;;;;;;4978373;28;20046;-92
2022/06/16 04:44:34;;;;;;;11.48;5.78;;;12.90;99.90;;;;;;4980008;28;20096;-93
2022/06/16 04:47:02;;;;;;;10.55;5.32;;;13.00;99.90;;;;;;4980521;28;20155;-92
2022/06/16 04:49:28;;;;;;;12.98;5.15;;;13.10;99.90;;;;;;4980868;28;20057;-93
2022/06/16 04:51:54;;;;;;;13.90;5.75;;;13.20;99.90;;;;;;4979916;28;20494;-93
2022/06/16 04:54:20;;;;;;;16.85;5.70;;;13.30;99.90;;;;;;4982451;28;20080;-93
2022/06/16 04:56:46;;;;;;;12.77;5.32;;;13.50;99.90;;;;;;4982833;28;20046;-93
2022/06/16 04:59:13;;;;;;;17.98;5.90;;;13.60;99.90;;;;;;4980867;28;20099;-93
2022/06/16 05:01:40;;;;;;;11.70;5.10;;;13.80;99.90;;;;;;4989081;28;20060;-93
2022/06/16 05:04:06;;;;;;;11.93;5.07;;;14.10;99.90;;;;;;4997911;28;20583;-94
2022/06/16 05:06:32;;;;;;;10.43;4.05;;;14.30;99.90;;;;;;5015721;28;20128;-93
2022/06/16 05:08:58;;;;;;;9.77;4.28;;;14.50;99.90;;;;;;4998865;28;20045;-93
2022/06/16 05:11:24;;;;;;;11.27;4.22;;;14.70;99.90;;;;;;4998025;28;20041;-93
2022/06/16 05:13:50;;;;;;;7.47;2.50;;;15.00;99.90;;;;;;5000419;28;20048;-93
2022/06/16 05:16:15;;;;;;;6.07;2.47;;;15.20;99.90;;;;;;5017023;28;20041;-93
2022/06/16 05:18:41;;;;;;;8.18;2.40;;;15.30;99.90;;;;;;5031556;28;20049;-93
2022/06/16 05:21:10;;;;;;;9.93;2.53;;;15.50;99.90;;;;;;5000946;28;20034;-93
2022/06/16 05:23:36;;;;;;;5.93;2.22;;;15.60;99.90;;;;;;4998730;28;20045;-92
2022/06/16 05:26:03;;;;;;;6.57;2.00;;;15.80;99.90;;;;;;5031553;28;20045;-93
2022/06/16 05:28:40;;;;;;;12.73;2.22;;;15.90;99.90;;;;;;4998599;28;20565;-94
2022/06/16 05:31:06;;;;;;;8.95;1.80;;;15.90;99.90;;;;;;4978784;28;20045;-88
2022/06/16 05:33:32;;;;;;;8.85;1.90;;;15.90;99.90;;;;;;4994790;28;20044;-89
2022/06/16 05:36:02;;;;;;;6.72;1.50;;;16.00;99.90;;;;;;4999983;28;20120;-90
2022/06/16 05:38:28;;;;;;;6.35;1.60;;;16.00;99.90;;;;;;5004535;28;20049;-88
2022/06/16 05:40:57;;;;;;;8.80;1.38;;;16.00;99.90;;;;;;4999309;28;20073;-88
2022/06/16 05:43:23;;;;;;;9.13;1.50;;;16.10;99.90;;;;;;5020940;28;20489;-89
2022/06/16 05:45:49;;;;;;;7.88;1.67;;;16.20;99.90;;;;;;5007531;28;20040;-90
2022/06/16 05:48:15;;;;;;;7.45;1.60;;;16.20;99.90;;;;;;5007258;28;20049;-90
2022/06/16 05:50:41;;;;;;;8.82;2.00;;;16.30;99.90;;;;;;5005185;28;20045;-90
2022/06/16 05:53:06;;;;;;;8.07;1.92;;;16.30;99.90;;;;;;5024696;28;20045;-96
2022/06/16 05:55:32;;;;;;;10.05;1.83;;;16.30;99.90;;;;;;5001508;28;20378;-96
2022/06/16 05:58:04;;;;;;;12.07;1.63;;;16.10;99.90;;;;;;5019620;28;20063;-96
2022/06/16 06:00:30;;;;;;;9.32;2.38;;;16.40;99.90;;;;;;5006612;28;20038;-96
2022/06/16 06:03:01;;;;;;;7.88;1.50;;;16.50;99.90;;;;;;4995684;28;20136;-96
2022/06/16 06:05:35;;;;;;;6.82;1.45;;;16.60;99.90;;;;;;4998610;28;20049;-96
2022/06/16 06:16:26;;;;;;;6.57;1.77;;;16.80;99.90;;;;;;5028335;28;20041;-95
2022/06/16 06:18:53;;;;;;;11.90;1.70;;;16.90;99.90;;;;;;4997996;28;20128;-95
2022/06/16 06:21:57;;;;;;;6.30;1.67;;;16.90;99.90;;;;;;5015396;28;20025;-96
2022/06/16 06:24:05;;;;;;;5.43;1.67;;;17.00;99.90;;;;;;5014238;28;20050;-96
2022/06/16 06:26:31;;;;;;;8.55;1.50;;;17.00;99.90;;;;;;4997779;28;20387;-96
2022/06/16 06:28:57;;;;;;;5.32;1.63;;;17.10;99.90;;;;;;4997925;28;20045;-96
2022/06/16 06:31:26;;;;;;;6.13;1.70;;;17.20;99.90;;;;;;4997410;28;20042;-96
2022/06/16 06:33:55;;;;;;;7.50;1.67;;;17.30;99.90;;;;;;4999905;28;20049;-96
2022/06/16 06:36:21;;;;;;;6.68;1.42;;;17.30;99.90;;;;;;4997584;28;20064;-96
2022/06/16 06:38:47;;;;;;;5.40;1.50;;;17.40;99.90;;;;;;4999562;28;20115;-96
2022/06/16 06:41:14;;;;;;;6.05;1.55;;;17.50;99.90;;;;;;4997473;28;20056;-96
2022/06/16 06:43:43;;;;;;;6.38;1.60;;;17.50;99.90;;;;;;5017603;28;20041;-96
2022/06/16 06:46:10;;;;;;;9.70;1.92;;;17.60;99.90;;;;;;4999751;28;20432;-95
2022/06/16 06:48:44;;;;;;;5.65;1.70;;;17.60;99.90;;;;;;4989113;28;20060;-96
2022/06/16 06:51:10;;;;;;;7.72;1.63;;;17.60;99.90;;;;;;5017782;28;20080;-96
2022/06/16 06:53:39;;;;;;;5.75;1.33;;;17.70;99.90;;;;;;5019228;28;20083;-96
2022/06/16 06:56:05;;;;;;;5.43;1.63;;;17.80;99.90;;;;;;5018184;28;20408;-93
2022/06/16 06:58:36;;;;;;;4.78;1.40;;;17.80;99.90;;;;;;5016821;28;20044;-96
2022/06/16 07:01:06;;;;;;;7.78;2.00;;;17.90;99.90;;;;;;5016567;28;20037;-96
2022/06/16 07:03:34;;;;;;;6.03;1.60;;;17.90;99.90;;;;;;5017283;28;20061;-96
2022/06/16 07:06:15;;;;;;;5.95;1.42;;;18.00;99.90;;;;;;5017809;28;20123;-96
2022/06/16 07:08:47;;;;;;;4.65;1.23;;;17.40;99.90;;;;;;5017932;28;20057;-96
2022/06/16 07:11:16;;;;;;;6.55;2.17;;;18.00;99.90;;;;;;5018649;28;20049;-96
2022/06/16 07:13:52;;;;;;;7.88;1.85;;;18.00;99.90;;;;;;5019846;28;20500;-96
2022/06/16 07:16:37;;;;;;;8.13;1.70;;;18.10;99.90;;;;;;5022892;28;20067;-96
2022/06/16 07:19:34;;;;;;;5.78;1.50;;;18.20;99.90;;;;;;5016312;28;20508;-96
2022/06/16 07:26:24;;;;;;;5.50;1.42;;;18.30;99.90;;;;;;4997814;28;20125;-94
2022/06/16 07:29:04;;;;;;;5.45;1.50;;;18.50;99.90;;;;;;5021159;28;20556;-95
2022/06/16 07:31:54;;;;;;;5.38;1.40;;;18.50;99.90;;;;;;5005544;28;20056;-93
2022/06/16 07:34:49;;;;;;;7.85;1.70;;;18.60;99.90;;;;;;5017214;28;20049;-93
2022/06/16 07:37:45;;;;;;;6.18;1.40;;;18.70;99.90;;;;;;5011097;28;20064;-94
2022/06/16 07:40:40;;;;;;;7.15;1.45;;;18.80;99.90;;;;;;5019187;28;20378;-94
2022/06/16 07:43:26;;;;;;;6.35;1.80;;;18.90;99.90;;;;;;4967985;28;20049;-93
2022/06/16 07:46:38;;;;;;;7.80;1.42;;;19.00;99.90;;;;;;5036777;28;20059;-94
2022/06/16 07:52:49;;;;;;;5.70;1.58;;;19.00;99.90;;;;;;5033709;28;20048;-93
2022/06/16 07:55:39;;;;;;;6.95;1.88;;;19.00;99.90;;;;;;4972699;28;20049;-93
2022/06/16 07:58:39;;;;;;;4.95;1.67;;;19.20;99.90;;;;;;5007137;28;20086;-93
2022/06/16 08:01:20;;;;;;;4.80;1.38;;;19.10;99.90;;;;;;4897936;29;20040;-94
2022/06/16 08:04:06;;;;;;;5.07;1.30;;;19.20;99.90;;;;;;4937027;28;20051;-94
2022/06/16 08:07:03;;;;;;;;;;;;;;;;;;;;;
2022/06/16 08:09:55;;;;;;;6.35;1.77;;;19.50;99.90;;;;;;4931926;29;20110;-94
2022/06/16 08:13:08;;;;;;;5.82;1.48;;;19.60;99.90;;;;;;4966651;28;20065;-94
2022/06/16 08:15:46;;;;;;;5.40;1.27;;;19.30;99.90;;;;;;5014786;28;20111;-94
2022/06/16 08:18:38;;;;;;;5.35;1.20;;;19.70;99.90;;;;;;5015440;28;20481;-94
2022/06/16 08:21:38;;;;;;;5.63;1.20;;;19.70;99.90;;;;;;5008728;28;20135;-94
2022/06/16 08:24:39;;;;;;;5.75;1.60;;;19.80;99.90;;;;;;5016912;28;20048;-94
2022/06/16 08:27:32;;;;;;;5.03;1.45;;;19.80;99.90;;;;;;5018229;28;20049;-94
2022/06/16 08:30:33;;;;;;;6.77;1.40;;;19.00;99.90;;;;;;5000218;28;20132;-94
2022/06/16 08:33:13;;;;;;;5.72;1.50;;;20.00;99.90;;;;;;5034196;28;20059;-93
2022/06/16 08:36:04;;;;;;;;;;;20.00;99.90;;;;;;5015237;28;20056;-94
2022/06/16 08:38:47;;;;;;;4.60;1.33;;;20.00;99.90;;;;;;5016562;28;19939;-94
2022/06/16 08:41:57;;;;;;;6.47;1.90;;;20.00;99.90;;;;;;5007431;28;20111;-95
2022/06/16 08:48:08;;;;;;;7.68;1.55;;;20.10;99.90;;;;;;5049202;28;20472;-94
2022/06/16 08:51:19;;;;;;;5.65;1.40;;;20.10;99.90;;;;;;4952647;28;20143;-93
2022/06/16 08:54:32;;;;;;;8.82;1.77;;;20.70;99.90;;;;;;5015849;28;20585;-94
2022/06/16 08:57:23;;;;;;;7.40;1.38;;;20.40;99.90;;;;;;5016262;28;20045;-95
2022/06/16 09:00:44;;;;;;;9.57;1.48;;;20.60;99.90;;;;;;5014825;28;20052;-94
2022/06/16 09:03:54;;;;;;;4.20;1.20;;;20.80;99.90;;;;;;5035721;28;20092;-94
2022/06/16 09:06:49;;;;;;;4.90;1.50;;;21.00;99.90;;;;;;5014156;28;20049;-95
2022/06/16 09:16:33;;;;;;;5.22;1.60;;;21.00;99.90;;;;;;5026581;28;20448;-94
2022/06/16 09:23:01;;;;;;;4.45;1.60;;;20.70;99.90;;;;;;5004403;28;20057;-94
2022/06/16 09:26:03;;;;;;;7.55;1.90;;;21.10;99.90;;;;;;4969568;28;20570;-94
2022/06/16 09:28:54;;;;;;;22.52;5.57;;;20.70;99.90;;;;;;4991898;28;20140;-94
2022/06/16 09:37:52;;;;;;;5.20;1.80;;;20.60;99.90;;;;;;5025130;23;20064;-92
2022/06/16 09:40:26;;;;;;;6.38;1.50;;;20.70;99.90;;;;;;4992630;28;20089;-92
2022/06/16 09:43:32;;;;;;;;;;;;;;;;;;;;;
2022/06/16 09:49:47;;;;;;;6.25;1.50;;;21.00;99.90;;;;;;5012623;28;20068;-93
2022/06/16 09:52:43;;;;;;;6.40;1.67;;;21.20;99.90;;;;;;4995563;28;20049;-94
2022/06/16 09:55:20;;;;;;;6.65;1.45;;;21.30;99.90;;;;;;4992188;28;20060;-94
2022/06/16 09:58:48;;;;;;;7.25;1.60;;;21.30;99.90;;;;;;4972980;28;20045;-93
2022/06/16 10:00:52;;;;;;;5.57;1.67;;;21.50;99.90;;;;;;4997348;28;20052;-94
2022/06/16 10:03:41;;;;;;;4.30;1.40;;;21.50;99.90;;;;;;4971692;28;20050;-91
2022/06/16 10:06:21;;;;;;;5.90;1.98;;;21.50;99.90;;;;;;4975340;28;20050;-94
2022/06/16 10:09:22;;;;;;;5.47;1.90;;;21.60;99.90;;;;;;4975699;28;20054;-94
2022/06/16 10:12:16;;;;;;;3.53;1.35;;;21.60;99.90;;;;;;4976473;28;20050;-95
2022/06/16 10:15:11;;;;;;;5.55;1.40;;;21.60;99.90;;;;;;4975043;28;20047;-92
2022/06/16 10:17:45;;;;;;;6.32;1.65;;;21.70;99.90;;;;;;4976192;28;20057;-92
2022/06/16 10:20:14;;;;;;;3.65;1.30;;;21.80;99.90;;;;;;4974852;28;20065;-91
2022/06/16 10:38:07;;;;;;;;;;;;;;;;;;;;;
2022/06/16 10:42:00;;;;;;;8.25;2.20;;;22.20;99.90;;;;;;4952232;28;20048;-93
2022/06/16 10:44:51;;;;;;;7.40;2.10;;;22.40;99.00;;;;;;4923636;28;20049;-93
2022/06/16 10:53:23;;;;;;;4.78;1.83;;;22.30;97.70;;;;;;5045621;23;20058;-93
2022/06/16 10:59:19;;;;;;;6.38;2.10;;;22.40;98.60;;;;;;5450360;23;20317;-93
2022/06/16 11:06:23;;;;;;;7.57;1.55;;;22.40;99.50;;;;;;5011888;28;20053;-95
2022/06/16 11:09:48;;;;;;;6.35;1.60;;;22.50;99.40;;;;;;4981798;28;20169;-95
2022/06/16 11:12:46;;;;;;;7.38;2.03;;;22.70;99.10;;;;;;4976287;28;20089;-95
2022/06/16 11:15:27;;;;;;;5.30;1.80;;;22.60;97.80;;;;;;4990736;28;20061;-92
2022/06/16 11:17:57;;;;;;;5.78;2.20;;;22.60;98.00;;;;;;4976459;28;20041;-92
2022/06/16 11:20:39;;;;;;;7.63;2.05;;;22.60;97.30;;;;;;4974981;28;20410;-92
2022/06/16 11:23:41;;;;;;;5.70;1.88;;;22.60;98.10;;;;;;4979920;28;20394;-90
2022/06/16 11:26:27;;;;;;;5.60;1.85;;;22.80;96.90;;;;;;4974324;28;20053;-91
2022/06/16 11:29:27;;;;;;;7.53;1.65;;;22.80;97.10;;;;;;4977655;28;20042;-91
2022/06/16 11:32:18;;;;;;;5.30;1.95;;;22.80;96.90;;;;;;4963606;28;20046;-91
2022/06/16 11:34:48;;;;;;;6.65;2.05;;;22.90;98.50;;;;;;4974008;28;20054;-90
2022/06/16 11:37:48;;;;;;;3.55;1.58;;;23.00;97.40;;;;;;4978436;28;20049;-93
2022/06/16 11:40:40;;;;;;;5.45;1.92;;;23.10;94.90;;;;;;4988700;28;20061;-92
2022/06/16 11:43:31;;;;;;;7.63;1.98;;;23.00;93.50;;;;;;4977477;28;20042;-92
2022/06/16 11:46:31;;;;;;;4.53;1.60;;;23.00;94.10;;;;;;4970597;28;20049;-92
2022/06/16 11:49:03;;;;;;;5.32;1.52;;;23.00;94.60;;;;;;4977869;28;20128;-91
2022/06/16 11:55:41;;;;;;;4.15;1.48;;;23.30;92.90;;;;;;5000953;28;20053;-95
2022/06/16 12:46:04;;;;;;;6.82;1.75;;;23.00;90.30;;;;;;5823713;23;19922;-95
2022/06/16 12:49:47;;;;;;;11.18;1.90;;;23.00;90.80;;;;;;4913680;29;20071;-96
2022/06/16 12:53:31;;;;;;;5.28;1.23;;;23.10;91.70;;;;;;4901454;29;20100;-96
2022/06/16 12:56:54;;;;;;;7.10;1.58;;;23.30;91.80;;;;;;4900240;29;20115;-95
2022/06/16 13:00:11;;;;;;;;;;;;;;;;;;;;;
2022/06/16 13:06:45;;;;;;;6.03;1.80;;;22.70;91.10;;;;;;4903359;29;20064;-95
2022/06/16 13:09:24;;;;;;;6.43;1.60;;;22.80;92.10;;;;;;4920934;29;20105;-96
2022/06/16 13:12:09;;;;;;;7.57;1.92;;;22.90;93.10;;;;;;4907857;29;20055;-95
2022/06/16 13:21:18;;;;;;;5.45;1.63;;;23.00;93.60;;;;;;4867250;29;20051;-96
2022/06/16 13:24:03;;;;;;;5.57;1.50;;;23.10;94.30;;;;;;4879633;29;20420;-95
2022/06/16 13:27:26;;;;;;;8.20;1.73;;;23.10;93.20;;;;;;4879424;29;20060;-94
2022/06/16 13:34:23;;;;;;;6.43;1.95;;;22.90;92.80;;;;;;4896017;29;20554;-95
2022/06/16 13:40:43;;;;;;;3.70;1.45;;;22.80;94.00;;;;;;4885988;29;20143;-95
2022/06/16 13:47:00;;;;;;;7.25;1.58;;;22.70;93.60;;;;;;4850394;29;20059;-94
2022/06/16 13:53:02;;;;;;;6.53;1.60;;;22.60;92.40;;;;;;4900343;29;20071;-95
2022/06/16 14:00:15;;;;;;;6.72;1.90;;;22.60;93.30;;;;;;4889721;29;20059;-94
2022/06/16 14:06:42;;;;;;;8.07;1.95;;;22.40;92.70;;;;;;4899715;29;20091;-95
2022/06/16 14:09:53;;;;;;;8.43;1.77;;;22.50;92.30;;;;;;4888538;29;20056;-96
2022/06/16 14:13:30;;;;;;;7.55;1.55;;;22.40;91.50;;;;;;4886861;29;20111;-95
2022/06/16 14:20:32;;;;;;;6.63;1.83;;;22.60;92.50;;;;;;4840627;29;20145;-96
2022/06/16 14:23:49;;;;;;;;;;;;;;;;;;;;;
2022/06/16 14:27:13;;;;;;;8.73;2.08;;;22.70;92.60;;;;;;4858362;29;20045;-93
2022/06/16 14:30:05;;;;;;;;;;;;;;;;;;;;;
2022/06/16 14:33:24;;;;;;;10.57;1.90;;;22.70;91.10;;;;;;4918610;29;20041;-93
2022/06/16 14:36:27;;;;;;;4.22;1.20;;;22.60;91.00;;;;;;4884832;29;20437;-93
2022/06/16 14:39:36;;;;;;;;;;;;;;;;;;;;;
2022/06/16 14:49:48;;;;;;;6.85;1.70;;;22.70;93.60;;;;;;4891221;29;20079;-96
2022/06/16 14:52:48;;;;;;;7.15;1.25;;;23.00;92.50;;;;;;4910168;29;20085;-95
2022/06/16 14:59:25;;;;;;;;;;;;;;;;;;;;;
2022/06/16 15:05:11;;;;;;;7.68;2.00;;;22.80;92.10;;;;;;5086153;23;20099;-95
2022/06/16 15:08:35;;;;;;;8.80;1.63;;;22.90;91.50;;;;;;4878942;29;20072;-95
2022/06/16 15:15:25;;;;;;;;;;;;;;;;;;;;;
2022/06/16 15:21:34;;;;;;;4.53;1.33;;;23.00;90.10;;;;;;4863653;29;20111;-94
2022/06/16 15:25:06;;;;;;;5.75;1.35;;;23.00;89.90;;;;;;4903620;29;20135;-96
2022/06/16 15:28:35;;;;;;;4.35;1.88;;;23.10;90.00;;;;;;4901293;29;20490;-96
2022/06/16 15:31:46;;;;;;;;;;;;;;;;;;;;;
2022/06/16 15:39:02;;;;;;;;;;;;;;;;;;;;;
2022/06/16 15:41:22;;;;;;;7.60;1.48;;;23.40;90.00;;;;;;4837298;28;20069;-96
2022/06/16 15:48:05;;;;;;;2.75;1.30;;;23.60;89.00;;;;;;4855891;29;20107;-96
2022/06/16 15:51:37;;;;;;;6.80;1.58;;;23.70;90.40;;;;;;4900705;29;20084;-95
2022/06/16 15:58:16;;;;;;;4.68;1.55;;;24.20;89.20;;;;;;4896755;29;20091;-96
2022/06/16 16:01:13;;;;;;;5.72;1.50;;;24.20;91.10;;;;;;4838062;29;20052;-96
2022/06/16 16:04:32;;;;;;;5.55;1.30;;;24.20;92.10;;;;;;4883963;29;20547;-95
2022/06/16 16:22:48;;;;;;;7.35;1.63;;;24.60;87.10;;;;;;5122062;23;20375;-94
2022/06/16 16:45:51;;;;;;;4.00;1.50;;;23.50;86.50;;;;;;5292168;23;20048;-95
2022/06/16 16:49:04;;;;;;;6.22;1.63;;;23.20;88.10;;;;;;4920559;29;20132;-95
2022/06/16 16:51:49;;;;;;;6.32;1.80;;;23.00;89.20;;;;;;4905444;29;20050;-95
2022/06/16 16:58:40;;;;;;;6.15;1.60;;;22.30;90.40;;;;;;4853551;29;20402;-95
2022/06/16 17:01:54;;;;;;;4.20;1.50;;;22.20;91.60;;;;;;4879565;29;20508;-96
2022/06/16 17:04:28;;;;;;;6.68;2.03;;;22.00;92.70;;;;;;4917408;28;20131;-94
2022/06/16 17:07:08;;;;;;;7.45;1.83;;;21.80;93.10;;;;;;4895962;29;20051;-94
2022/06/16 17:09:52;;;;;;;6.53;2.33;;;21.70;93.70;;;;;;4893364;29;20039;-94
2022/06/16 17:12:51;;;;;;;5.68;1.45;;;21.60;94.70;;;;;;4895279;29;20083;-94
2022/06/16 17:16:07;;;;;;;13.73;2.10;;;21.50;95.70;;;;;;4930118;29;20145;-93
2022/06/16 17:18:41;;;;;;;10.90;1.63;;;21.50;96.30;;;;;;4873385;29;20415;-94
2022/06/16 17:22:08;;;;;;;9.10;1.80;;;21.40;97.00;;;;;;4904256;29;20054;-94
2022/06/16 17:25:02;;;;;;;5.38;1.95;;;21.40;98.50;;;;;;4847109;28;20051;-93
2022/06/16 17:31:02;;;;;;;6.35;1.95;;;21.40;99.90;;;;;;4900037;29;20074;-94
2022/06/16 17:33:51;;;;;;;5.85;2.00;;;21.30;99.90;;;;;;4901173;29;20118;-94
2022/06/16 17:36:23;;;;;;;7.90;2.40;;;21.30;99.90;;;;;;4895975;29;20060;-94
2022/06/16 17:39:13;;;;;;;10.38;2.60;;;21.10;99.90;;;;;;4919824;29;20047;-94
2022/06/16 17:42:50;;;;;;;5.60;2.42;;;21.30;99.90;;;;;;4939989;29;20511;-93
2022/06/16 17:45:18;;;;;;;6.50;2.53;;;21.60;99.90;;;;;;4936531;29;20051;-93
2022/06/16 18:01:48;;;;;;;9.00;2.90;;;22.50;99.90;;;;;;4884553;29;20051;-95
2022/06/16 18:04:16;;;;;;;7.78;2.80;;;22.40;99.90;;;;;;4949010;29;20062;-94
2022/06/16 18:07:10;;;;;;;11.35;2.40;;;22.10;99.90;;;;;;4939245;29;20082;-94
2022/06/16 18:10:47;;;;;;;10.75;2.75;;;21.90;99.90;;;;;;4922208;29;20099;-94
2022/06/16 18:13:30;;;;;;;7.32;2.33;;;21.60;99.90;;;;;;4901749;28;20027;-94
2022/06/16 18:16:18;;;;;;;6.00;2.28;;;21.70;99.90;;;;;;4926113;29;20085;-94
2022/06/16 18:22:56;;;;;;;5.95;1.88;;;21.40;99.90;;;;;;4890011;28;20039;-94
2022/06/16 18:26:10;;;;;;;5.90;2.13;;;21.20;99.90;;;;;;4879203;29;20647;-94
2022/06/16 18:28:35;;;;;;;5.85;1.92;;;21.20;99.90;;;;;;4904071;29;20044;-94
2022/06/16 18:35:08;;;;;;;5.80;2.05;;;20.90;99.90;;;;;;4896010;29;20084;-94
2022/06/16 18:49:21;;;;;;;9.80;2.38;;;20.00;99.90;;;;;;4954324;23;20052;-94